Terminal Aerodrome Forecast
Issued by NWS

Home | Current Version | Previous Version | Text Only | Print | Product List | Glossary On
Versions: 1 2 3 4 5 6 7 8 9 10 11 12 13 14 15 16 17 18 19 20 21 22 23 24 25
059
FTUS43 KMQT 270532 AAC
TAFCMX
TAF AMD
KCMX 270532Z 2706/2806 VRB03KT 1/4SM FG VV001
     FM271000 28004KT 1/2SM FG OVC001
     FM271300 34003KT 2SM BR BKN010
     FM271400 06004KT P6SM BKN020
     FM271800 09008KT P6SM VCSH OVC110
     FM272200 09007KT P6SM -SHRA OVC070=

USA.gov is the U.S. government's official web portal to all federal, state and local government web resources and services.